Time;durP1;ratioP1;P1;durP2;ratioP2;P2;SDS_P1;SDS_P2;PMS_P1;PMS_P2;Temp;Humidity;BMP_temperature;BMP_pressure;BME280_temperature;BME280_humidity;BME280_pressure;Samples;Min_cycle;Max_cycle;Signal;HPM_P1;HPM_P2
2023/10/13 00:01:24;;;;;;;4.10;1.50;;;;;;;18.01;54.93;100750.42;108129;1286;21999;-58
2023/10/13 00:03:52;;;;;;;3.60;1.30;;;;;;;18.03;54.95;100755.50;108102;1286;21999;-58
2023/10/13 00:06:18;;;;;;;4.60;1.10;;;;;;;18.03;55.38;100757.10;108228;1280;21992;-69
2023/10/13 00:08:45;;;;;;;5.80;1.20;;;;;;;18.02;55.46;100749.48;108106;1283;23823;-71
2023/10/13 00:11:15;;;;;;;3.00;1.40;;;;;;;18.05;56.10;100752.05;108173;1286;21995;-57
2023/10/13 00:13:42;;;;;;;3.60;1.10;;;;;;;18.07;56.11;100756.95;108186;1286;21992;-59
2023/10/13 00:16:10;;;;;;;3.50;1.10;;;;;;;18.10;56.23;100760.04;108164;1286;21990;-70
2023/10/13 00:18:41;;;;;;;4.40;1.20;;;;;;;18.11;56.37;100760.48;108131;1286;23638;-70
2023/10/13 00:21:13;;;;;;;3.20;1.10;;;;;;;18.12;56.25;100756.36;108124;1279;22051;-56
2023/10/13 00:23:52;;;;;;;5.50;1.20;;;;;;;18.14;56.15;100753.65;108113;1286;21990;-56
2023/10/13 00:26:28;;;;;;;6.00;1.20;;;;;;;18.15;56.23;100752.73;108139;1283;22301;-57
2023/10/13 00:31:36;;;;;;;5.60;1.30;;;;;;;18.09;56.74;100750.45;108110;1276;21988;-70
2023/10/13 00:34:12;;;;;;;4.90;1.30;;;;;;;18.08;56.64;100743.94;108155;1284;23644;-58
2023/10/13 00:39:23;;;;;;;4.30;1.10;;;;;;;18.05;57.03;100743.89;108165;1283;22030;-71
2023/10/13 00:41:52;;;;;;;3.20;0.90;;;;;;;18.06;56.92;100750.26;108122;1286;21993;-70
2023/10/13 00:44:28;;;;;;;6.20;1.30;;;;;;;18.06;56.60;100750.74;108154;1276;23360;-70
2023/10/13 00:46:56;;;;;;;7.00;1.40;;;;;;;18.08;57.00;100753.88;108172;1277;22007;-72
2023/10/13 00:49:22;;;;;;;4.30;1.30;;;;;;;18.06;56.93;100751.63;108180;1279;21993;-71
2023/10/13 00:51:49;;;;;;;5.20;0.90;;;;;;;18.04;56.96;100750.83;108173;1279;21995;-56
2023/10/13 00:54:18;;;;;;;5.90;1.50;;;;;;;18.02;56.96;100748.59;107451;1280;1002346;-56
2023/10/13 00:56:48;;;;;;;5.60;1.20;;;;;;;18.00;56.87;100742.80;108137;1280;21991;-71
2023/10/13 00:59:15;;;;;;;;;;;;;;;17.99;57.06;100741.07;107901;1282;23599;-57
2023/10/13 01:01:42;;;;;;;4.60;1.10;;;;;;;18.00;57.00;100741.58;108141;1286;21987;-57
2023/10/13 01:04:11;;;;;;;5.90;1.50;;;;;;;18.00;57.17;100744.93;108122;1286;21996;-57
2023/10/13 01:06:38;;;;;;;3.70;1.10;;;;;;;18.00;57.08;100746.00;108210;1286;21982;-71
2023/10/13 01:09:12;;;;;;;6.60;1.20;;;;;;;18.01;57.20;100745.29;108148;1286;24314;-71
2023/10/13 01:11:44;;;;;;;3.90;1.10;;;;;;;18.01;57.36;100741.53;108106;1283;22054;-71
2023/10/13 01:14:11;;;;;;;5.20;1.80;;;;;;;18.00;57.35;100741.20;108142;1285;22178;-71
2023/10/13 01:16:39;;;;;;;4.20;1.50;;;;;;;18.01;57.31;100740.81;108205;1286;21996;-56
2023/10/13 01:19:06;;;;;;;3.90;1.00;;;;;;;18.01;57.19;100747.38;108189;1280;23059;-57
2023/10/13 01:21:33;;;;;;;4.50;1.20;;;;;;;18.02;57.41;100747.36;108250;1286;22455;-71
2023/10/13 01:24:00;;;;;;;4.60;1.10;;;;;;;18.01;57.41;100751.48;108104;1286;23778;-56
2023/10/13 01:26:26;;;;;;;4.10;1.40;;;;;;;18.02;57.38;100748.80;108105;1276;22368;-71
2023/10/13 01:28:54;;;;;;;3.80;1.10;;;;;;;18.03;57.25;100753.17;108013;1279;22003;-56
2023/10/13 01:31:30;;;;;;;5.50;1.60;;;;;;;18.04;57.43;100753.87;108016;1287;22108;-56
2023/10/13 01:33:58;;;;;;;5.80;1.30;;;;;;;18.03;57.41;100755.13;108101;1288;21999;-57
2023/10/13 01:36:27;;;;;;;4.10;1.20;;;;;;;18.03;57.34;100761.35;108160;1288;21996;-57
2023/10/13 01:38:53;;;;;;;3.70;1.30;;;;;;;18.04;57.42;100766.48;107961;1282;22001;-57
2023/10/13 01:41:20;;;;;;;4.10;1.10;;;;;;;18.05;57.32;100763.57;108120;1288;22006;-57
2023/10/13 01:43:45;;;;;;;7.30;1.90;;;;;;;18.07;57.24;100763.33;108199;1287;22477;-56
2023/10/13 01:46:14;;;;;;;4.40;1.50;;;;;;;18.08;57.29;100766.64;108126;1287;22026;-58
2023/10/13 01:48:46;;;;;;;4.70;1.30;;;;;;;18.09;57.29;100764.31;108155;1286;22002;-72
2023/10/13 01:51:11;;;;;;;7.80;1.20;;;;;;;18.08;57.23;100758.85;108173;1280;23641;-71
2023/10/13 01:53:37;;;;;;;3.70;1.20;;;;;;;18.06;57.12;100754.31;107865;1279;21983;-57
2023/10/13 01:56:10;;;;;;;6.70;2.70;;;;;;;18.04;56.95;100753.36;108119;1286;22005;-71
2023/10/13 01:58:42;;;;;;;4.00;1.00;;;;;;;18.00;56.84;100750.61;108125;1277;21989;-58
2023/10/13 02:01:09;;;;;;;5.60;1.20;;;;;;;17.97;56.70;100752.30;108118;1280;22563;-73
2023/10/13 02:03:48;;;;;;;16.70;4.70;;;;;;;17.94;56.59;100754.02;107412;1280;1002534;-70
2023/10/13 02:06:17;;;;;;;9.30;3.30;;;;;;;17.90;56.57;100755.21;108213;1286;22880;-57
2023/10/13 02:08:44;;;;;;;9.00;3.40;;;;;;;17.86;56.65;100756.96;108180;1286;22096;-72
2023/10/13 02:11:12;;;;;;;6.70;2.70;;;;;;;17.83;56.68;100757.42;108152;1283;21989;-57
2023/10/13 02:13:48;;;;;;;8.20;1.80;;;;;;;17.80;56.63;100764.08;108119;1286;21999;-57
2023/10/13 02:16:18;;;;;;;6.70;1.60;;;;;;;17.77;56.75;100766.52;108109;1276;21992;-73
2023/10/13 02:18:44;;;;;;;4.10;1.40;;;;;;;17.73;56.86;100766.30;108166;1286;23737;-56
2023/10/13 02:21:12;;;;;;;3.20;1.00;;;;;;;17.70;56.82;100768.52;108134;1277;22027;-59
2023/10/13 02:23:44;;;;;;;6.70;1.60;;;;;;;17.68;56.97;100767.55;108154;1280;21990;-57
2023/10/13 02:26:30;;;;;;;6.30;1.70;;;;;;;17.63;57.41;100760.28;108153;1286;21989;-57
2023/10/13 02:29:02;;;;;;;5.60;2.00;;;;;;;17.59;57.61;100754.23;108127;1279;23733;-57
2023/10/13 02:31:27;;;;;;;5.30;1.80;;;;;;;17.56;57.76;100747.56;108159;1283;21992;-57
2023/10/13 02:33:53;;;;;;;4.50;1.50;;;;;;;17.57;57.86;100744.69;108074;1279;21996;-57
2023/10/13 02:36:22;;;;;;;6.70;1.60;;;;;;;17.59;58.03;100756.86;108082;1287;21992;-59
2023/10/13 02:38:50;;;;;;;3.40;1.40;;;;;;;17.62;57.97;100769.55;108133;1281;22034;-57
2023/10/13 02:41:25;;;;;;;3.50;1.20;;;;;;;17.64;57.96;100770.35;108180;1276;22193;-72
2023/10/13 02:43:52;;;;;;;3.50;1.60;;;;;;;17.68;58.07;100766.99;108186;1286;21993;-57
2023/10/13 02:46:21;;;;;;;4.30;1.10;;;;;;;17.73;57.94;100773.05;108141;1286;21996;-57
2023/10/13 02:48:52;;;;;;;5.30;1.50;;;;;;;17.77;58.01;100781.23;108114;1273;23133;-71
2023/10/13 02:51:22;;;;;;;5.00;1.10;;;;;;;17.79;57.70;100777.10;108078;1282;22004;-71
2023/10/13 02:53:52;;;;;;;5.40;1.30;;;;;;;17.79;57.48;100775.14;108125;1280;21993;-70
2023/10/13 02:56:20;;;;;;;6.40;2.10;;;;;;;17.80;57.38;100773.88;108082;1279;21999;-69
2023/10/13 02:58:53;;;;;;;4.40;1.20;;;;;;;17.78;57.19;100759.02;108117;1287;21993;-70
2023/10/13 03:01:20;;;;;;;8.50;1.50;;;;;;;17.73;57.44;100751.23;108149;1285;21984;-69
2023/10/13 03:03:54;;;;;;;5.00;1.40;;;;;;;17.64;57.43;100745.34;108136;1286;21997;-55
2023/10/13 03:06:21;;;;;;;3.80;1.40;;;;;;;17.58;57.58;100733.66;108135;1281;21989;-70
2023/10/13 03:08:48;;;;;;;6.70;1.20;;;;;;;17.54;57.60;100728.27;108183;1286;21994;-69
2023/10/13 03:11:13;;;;;;;7.00;1.30;;;;;;;17.52;57.91;100723.05;108074;1282;21990;-68
2023/10/13 03:13:45;;;;;;;8.00;2.20;;;;;;;17.49;58.12;100718.34;108124;1286;21995;-55
2023/10/13 03:16:15;;;;;;;7.10;1.90;;;;;;;17.50;59.02;100718.69;108175;1286;22152;-70
2023/10/13 03:18:56;;;;;;;6.90;1.80;;;;;;;17.49;59.36;100712.67;108119;1283;22780;-57
2023/10/13 03:21:29;;;;;;;7.10;1.30;;;;;;;17.49;59.32;100711.96;108164;1287;21999;-68
2023/10/13 03:23:56;;;;;;;6.50;1.30;;;;;;;17.51;59.50;100710.66;108169;1286;23618;-58
2023/10/13 03:26:22;;;;;;;6.00;1.40;;;;;;;17.53;59.41;100713.94;108140;1276;21975;-68
2023/10/13 03:28:52;;;;;;;5.60;1.10;;;;;;;17.56;59.23;100715.83;108124;1286;22001;-56
2023/10/13 03:31:19;;;;;;;3.40;1.20;;;;;;;17.58;59.24;100710.23;108043;1286;21993;-69
2023/10/13 03:33:46;;;;;;;3.80;1.50;;;;;;;17.59;59.15;100707.73;108131;1280;22004;-69
2023/10/13 03:36:35;;;;;;;5.40;1.60;;;;;;;17.58;59.23;100706.33;108157;1279;21992;-69
2023/10/13 03:38:59;;;;;;;5.70;1.50;;;;;;;17.57;59.11;100705.30;108160;1286;22000;-69
2023/10/13 03:41:30;;;;;;;9.10;1.60;;;;;;;17.54;59.29;100700.63;108126;1280;22007;-56
2023/10/13 03:44:08;;;;;;;5.00;1.40;;;;;;;17.50;59.50;100702.20;108162;1286;22224;-56
2023/10/13 03:46:36;;;;;;;9.50;1.90;;;;;;;17.49;59.42;100708.45;108174;1279;22035;-69
2023/10/13 03:49:06;;;;;;;5.40;1.40;;;;;;;17.49;59.70;100709.30;108274;1281;21993;-56
2023/10/13 03:51:31;;;;;;;5.00;1.30;;;;;;;17.51;59.61;100713.85;108123;1276;21999;-56
2023/10/13 03:53:58;;;;;;;6.40;1.70;;;;;;;17.54;59.57;100718.73;107401;1280;1003174;-69
2023/10/13 03:56:28;;;;;;;8.00;1.60;;;;;;;17.57;59.53;100727.86;108161;1280;21991;-69
2023/10/13 03:58:56;;;;;;;6.10;1.30;;;;;;;17.60;59.45;100735.36;108062;1284;22459;-56
2023/10/13 04:02:12;;;;;;;7.40;1.70;;;;;;;17.64;59.47;100738.92;108147;1286;21991;-70
2023/10/13 04:04:29;;;;;;;8.90;2.20;;;;;;;17.69;59.37;100741.94;108077;1287;22003;-67
2023/10/13 04:07:13;;;;;;;11.60;2.20;;;;;;;17.70;59.19;100746.88;108191;1284;21990;-56
2023/10/13 04:17:45;;;;;;;5.70;1.20;;;;;;;17.72;58.87;100740.07;108112;1286;21991;-56
2023/10/13 04:25:38;;;;;;;4.60;1.40;;;;;;;17.73;58.85;100749.61;108122;1286;22001;-56
2023/10/13 04:36:13;;;;;;;8.50;1.20;;;;;;;17.76;58.60;100764.06;108141;1286;21993;-68
2023/10/13 04:38:55;;;;;;;50.40;4.10;;;;;;;17.76;58.51;100765.48;108133;1276;22034;-56
2023/10/13 04:41:57;;;;;;;163.70;13.00;;;;;;;17.76;58.49;100767.61;108112;1286;21995;-67
2023/10/13 04:47:17;;;;;;;37.40;3.80;;;;;;;17.77;58.37;100768.45;108072;1277;22246;-55
2023/10/13 04:52:15;;;;;;;10.50;2.60;;;;;;;17.74;58.21;100761.31;108153;1275;21989;-56
2023/10/13 04:54:49;;;;;;;5.30;1.50;;;;;;;17.74;58.22;100755.46;108100;1280;21989;-68
2023/10/13 06:29:48;;;;;;;3.40;1.60;;;;;;;19.29;57.71;100860.98;108188;1286;22006;-70
2023/10/13 06:32:16;;;;;;;6.50;1.90;;;;;;;19.29;57.78;100857.05;108135;1281;23065;-57
2023/10/13 06:34:45;;;;;;;7.60;2.20;;;;;;;19.31;57.75;100857.52;108146;1283;22031;-69
2023/10/13 06:37:30;;;;;;;11.30;2.30;;;;;;;19.34;57.56;100860.27;108080;1286;22033;-69
2023/10/13 06:42:55;;;;;;;13.00;3.20;;;;;;;19.42;57.66;100849.06;108114;1283;21998;-67
2023/10/13 06:45:21;;;;;;;9.80;3.20;;;;;;;19.47;57.57;100845.85;108092;1286;22002;-58
2023/10/13 06:47:52;;;;;;;6.90;2.70;;;;;;;19.51;57.46;100842.28;108112;1287;22171;-58
2023/10/13 06:50:24;;;;;;;8.20;3.50;;;;;;;19.56;57.79;100842.95;108151;1287;22009;-58
2023/10/13 06:52:54;;;;;;;13.60;5.20;;;;;;;19.63;57.55;100851.23;108066;1276;22032;-57
2023/10/13 06:55:35;;;;;;;15.60;5.90;;;;;;;19.67;57.21;100854.44;108125;1288;22001;-57
2023/10/13 06:58:01;;;;;;;20.60;8.10;;;;;;;19.73;57.14;100860.59;108141;1281;21989;-69
2023/10/13 07:00:29;;;;;;;22.90;9.70;;;;;;;19.77;57.01;100868.95;108106;1283;21989;-57
2023/10/13 07:03:05;;;;;;;18.50;9.00;;;;;;;19.79;56.77;100871.19;108229;1276;23615;-57
2023/10/13 07:05:43;;;;;;;18.10;8.20;;;;;;;19.82;56.79;100879.26;108112;1284;21999;-72
2023/10/13 07:08:09;;;;;;;16.20;6.20;;;;;;;19.87;56.76;100876.21;108141;1282;23824;-57
2023/10/13 07:13:47;;;;;;;12.60;6.20;;;;;;;20.00;56.66;100875.66;108183;1286;21999;-57
2023/10/13 07:16:13;;;;;;;17.50;7.90;;;;;;;20.10;56.79;100876.30;108094;1280;22006;-70
2023/10/13 07:18:49;;;;;;;18.70;7.20;;;;;;;20.19;56.75;100875.52;108091;1285;21983;-69
2023/10/13 07:21:24;;;;;;;17.80;8.20;;;;;;;20.28;56.86;100875.83;108112;1279;22452;-69
2023/10/13 07:24:01;;;;;;;10.60;5.00;;;;;;;20.40;56.80;100873.52;108114;1280;21995;-57
2023/10/13 07:26:28;;;;;;;9.60;3.40;;;;;;;20.51;56.58;100874.30;108080;1280;21978;-70
2023/10/13 07:28:54;;;;;;;10.20;3.30;;;;;;;20.60;56.59;100875.64;108161;1279;21997;-69
2023/10/13 07:31:20;;;;;;;8.70;1.80;;;;;;;20.69;56.32;100882.17;108096;1285;22121;-58
2023/10/13 07:33:47;;;;;;;5.50;1.50;;;;;;;20.74;55.75;100889.77;108083;1286;22002;-69
2023/10/13 07:36:15;;;;;;;5.20;1.30;;;;;;;20.78;55.68;100895.31;108127;1283;22004;-59
2023/10/13 07:38:42;;;;;;;5.90;1.70;;;;;;;20.83;55.16;100898.71;108122;1282;21998;-69
2023/10/13 07:41:09;;;;;;;8.00;2.00;;;;;;;20.83;54.57;100900.69;108117;1286;21999;-69
2023/10/13 07:43:37;;;;;;;9.70;1.60;;;;;;;20.83;54.68;100902.05;108111;1280;23782;-57
2023/10/13 07:46:09;;;;;;;8.80;2.10;;;;;;;20.89;54.76;100902.34;108149;1283;21998;-70
2023/10/13 07:48:40;;;;;;;6.00;1.60;;;;;;;20.97;54.85;100902.49;108097;1286;21991;-69
2023/10/13 07:51:26;;;;;;;;;;;;;;;21.07;54.69;100903.46;108173;1286;22133;-69
2023/10/13 07:53:52;;;;;;;9.80;2.20;;;;;;;21.16;54.34;100903.04;108133;1276;22006;-57
2023/10/13 07:56:19;;;;;;;11.00;1.80;;;;;;;21.21;54.10;100896.00;108086;1276;22001;-57
2023/10/13 07:59:00;;;;;;;15.30;2.40;;;;;;;21.28;54.06;100892.28;108099;1287;21997;-67
2023/10/13 08:01:28;;;;;;;10.70;2.40;;;;;;;21.37;53.92;100890.94;108043;1283;21994;-55
2023/10/13 08:04:12;;;;;;;9.90;2.40;;;;;;;21.46;53.71;100895.32;108045;1282;21993;-55
2023/10/13 08:06:40;;;;;;;9.20;2.40;;;;;;;21.55;53.58;100903.08;108137;1286;21994;-55
2023/10/13 08:09:09;;;;;;;10.20;2.40;;;;;;;21.65;53.53;100900.48;108228;1282;22031;-67
2023/10/13 08:11:38;;;;;;;10.50;3.40;;;;;;;21.73;53.19;100897.02;108177;1280;21989;-69
2023/10/13 08:14:11;;;;;;;11.00;3.10;;;;;;;21.81;53.03;100891.64;108115;1286;22000;-69
2023/10/13 08:16:53;;;;;;;10.80;2.70;;;;;;;21.89;52.80;100890.13;108219;1282;22159;-58
2023/10/13 08:35:09;;;;;;;9.50;2.80;;;;;;;22.45;51.07;100879.38;108205;1286;21993;-57
2023/10/13 08:38:17;;;;;;;6.50;2.80;;;;;;;22.53;50.98;100878.93;108206;1286;21994;-56
2023/10/13 08:43:11;;;;;;;9.90;3.40;;;;;;;22.72;50.59;100871.48;108088;1286;21992;-56
2023/10/13 08:48:07;;;;;;;11.50;3.10;;;;;;;22.88;50.28;100885.27;108116;1280;21999;-67
2023/10/13 08:50:55;;;;;;;7.80;4.60;;;;;;;22.97;50.35;100889.06;108284;1287;23727;-57
2023/10/13 08:56:14;;;;;;;14.90;4.20;;;;;;;23.18;50.07;100895.55;108112;1285;22001;-66
2023/10/13 09:04:27;;;;;;;9.80;3.10;;;;;;;23.61;49.98;100892.76;108219;1283;23719;-57
2023/10/13 09:09:35;;;;;;;13.50;5.20;;;;;;;23.93;49.28;100897.52;108148;1280;21987;-57
2023/10/13 09:17:47;;;;;;;9.90;3.50;;;;;;;24.37;48.84;100909.05;108102;1287;21997;-57
2023/10/13 09:25:34;;;;;;;10.30;3.10;;;;;;;24.90;47.75;100905.20;108147;1284;22006;-67
2023/10/13 09:28:02;;;;;;;11.70;3.50;;;;;;;25.05;47.69;100899.90;108107;1283;21995;-68
2023/10/13 09:30:30;;;;;;;12.60;3.40;;;;;;;25.25;47.72;100891.63;108209;1286;22179;-67
2023/10/13 09:33:01;;;;;;;10.90;3.40;;;;;;;25.48;47.34;100880.95;108102;1283;21993;-67
2023/10/13 09:35:28;;;;;;;12.10;3.70;;;;;;;25.67;47.21;100875.05;108210;1281;21997;-66
2023/10/13 09:37:56;;;;;;;10.10;3.00;;;;;;;25.94;47.84;100872.84;108127;1284;21993;-66
2023/10/13 09:40:38;;;;;;;10.30;4.00;;;;;;;26.26;47.31;100872.75;108088;1286;22002;-56
2023/10/13 09:43:08;;;;;;;10.70;3.70;;;;;;;26.59;47.20;100868.47;108081;1286;22071;-56
2023/10/13 09:46:01;;;;;;;11.90;3.70;;;;;;;26.88;46.56;100861.04;108110;1286;21995;-56
2023/10/13 09:48:36;;;;;;;16.30;4.80;;;;;;;27.11;46.38;100857.49;108201;1279;21997;-67
2023/10/13 09:51:03;;;;;;;18.00;4.70;;;;;;;27.30;46.29;100853.22;108081;1286;22031;-66
2023/10/13 09:53:31;;;;;;;10.50;3.80;;;;;;;27.46;46.07;100852.61;108161;1283;22007;-68
2023/10/13 09:56:13;;;;;;;9.00;3.30;;;;;;;27.55;45.64;100848.83;108926;1287;22007;-68
2023/10/13 09:58:54;;;;;;;10.60;4.10;;;;;;;27.59;45.07;100840.45;108164;1286;21995;-67
2023/10/13 10:01:33;;;;;;;10.70;4.00;;;;;;;27.60;44.81;100842.71;108110;1287;22009;-69
2023/10/13 10:04:13;;;;;;;9.30;3.60;;;;;;;27.58;44.72;100844.86;107830;1283;21992;-58
2023/10/13 10:06:47;;;;;;;12.10;4.00;;;;;;;27.53;44.31;100850.08;108150;1278;22430;-68
2023/10/13 10:09:12;;;;;;;7.00;3.70;;;;;;;27.46;43.96;100853.11;108076;1287;22249;-58
2023/10/13 10:12:00;;;;;;;17.70;4.10;;;;;;;27.38;43.97;100851.21;108085;1287;22049;-67
2023/10/13 10:14:56;;;;;;;15.10;4.50;;;;;;;27.29;43.93;100849.16;108150;1279;21994;-68
2023/10/13 10:17:21;;;;;;;11.30;4.30;;;;;;;27.21;43.74;100846.55;108068;1286;22000;-59
2023/10/13 10:19:58;;;;;;;14.80;4.50;;;;;;;27.14;43.83;100842.02;108081;1285;21995;-58
2023/10/13 10:22:33;;;;;;;11.70;4.40;;;;;;;27.10;43.81;100843.36;108136;1286;22460;-68
2023/10/13 10:25:00;;;;;;;15.70;4.40;;;;;;;27.07;43.69;100843.80;108093;1286;22486;-59
2023/10/13 10:27:29;;;;;;;13.90;3.90;;;;;;;27.04;43.56;100843.29;108064;1287;22074;-68
2023/10/13 10:29:55;;;;;;;11.60;4.10;;;;;;;27.04;43.49;100846.67;108109;1284;22001;-68
2023/10/13 10:32:21;;;;;;;9.80;3.80;;;;;;;27.06;43.36;100850.91;108109;1286;21996;-59
2023/10/13 10:34:47;;;;;;;10.40;3.70;;;;;;;27.07;42.81;100849.23;108118;1286;21990;-58
2023/10/13 10:37:12;;;;;;;12.20;4.00;;;;;;;27.06;42.97;100849.86;108074;1277;21992;-60
2023/10/13 10:39:49;;;;;;;9.40;3.50;;;;;;;27.08;42.82;100853.09;107755;1287;21993;-59
2023/10/13 10:42:15;;;;;;;11.50;4.20;;;;;;;27.11;42.72;100854.86;108107;1287;21989;-58
2023/10/13 10:44:43;;;;;;;10.50;4.10;;;;;;;27.21;42.77;100855.92;108127;1288;22096;-58
2023/10/13 10:47:19;;;;;;;9.00;3.90;;;;;;;27.38;42.59;100858.40;108103;1276;21995;-68
2023/10/13 10:49:47;;;;;;;11.90;3.40;;;;;;;27.55;42.43;100859.50;108106;1287;23753;-68
2023/10/13 10:52:18;;;;;;;11.60;3.80;;;;;;;27.72;42.33;100860.37;108153;1287;23653;-68
2023/10/13 10:54:51;;;;;;;10.90;3.90;;;;;;;27.83;42.07;100862.74;108142;1286;22282;-58
2023/10/13 10:57:17;;;;;;;10.50;4.20;;;;;;;27.91;41.61;100865.23;108135;1286;22003;-58
2023/10/13 10:59:44;;;;;;;9.50;4.50;;;;;;;28.00;41.74;100864.88;108063;1287;21984;-58
2023/10/13 11:02:15;;;;;;;8.60;3.60;;;;;;;28.02;41.37;100861.27;108094;1286;21990;-58
2023/10/13 11:04:50;;;;;;;11.60;3.90;;;;;;;28.03;41.28;100857.96;108091;1287;22470;-58
2023/10/13 11:07:31;;;;;;;8.80;3.60;;;;;;;28.04;41.26;100855.18;108093;1287;22010;-58
2023/10/13 11:10:10;;;;;;;8.30;4.10;;;;;;;28.00;40.84;100851.34;108096;1286;22000;-59
2023/10/13 11:12:36;;;;;;;9.30;3.30;;;;;;;27.94;40.94;100847.28;108054;1286;22454;-69
2023/10/13 11:15:02;;;;;;;12.30;4.50;;;;;;;27.94;40.94;100844.63;108124;1281;21995;-59
2023/10/13 11:17:51;;;;;;;11.00;4.10;;;;;;;27.94;40.94;100848.77;108079;1282;22040;-58
2023/10/13 11:20:16;;;;;;;10.30;4.50;;;;;;;27.94;40.65;100849.45;108052;1286;22034;-67
2023/10/13 11:22:49;;;;;;;8.00;4.20;;;;;;;27.91;40.56;100850.96;108133;1280;21997;-58
2023/10/13 11:25:29;;;;;;;12.00;4.30;;;;;;;27.89;40.47;100854.34;108057;1281;21995;-57
2023/10/13 11:27:56;;;;;;;15.30;4.40;;;;;;;27.86;40.49;100856.00;108024;1287;320957;-59
2023/10/13 11:31:10;;;;;;;6.70;3.30;;;;;;;27.82;40.55;100855.05;108066;1284;22002;-58
2023/10/13 11:33:11;;;;;;;10.80;4.00;;;;;;;27.83;40.35;100859.13;109253;1288;21997;-59
2023/10/13 11:38:27;;;;;;;12.80;4.00;;;;;;;27.69;39.96;100851.38;108145;1288;21993;-69
2023/10/13 11:48:36;;;;;;;11.40;4.60;;;;;;;27.62;40.40;100851.89;108104;1284;22100;-68
2023/10/13 11:51:23;;;;;;;8.60;4.10;;;;;;;27.70;40.24;100848.80;108103;1287;21993;-58
2023/10/13 11:53:51;;;;;;;9.50;4.00;;;;;;;27.91;40.21;100845.23;108111;1287;23725;-68
2023/10/13 11:56:20;;;;;;;7.50;3.90;;;;;;;28.18;40.35;100844.02;108086;1283;22003;-68
2023/10/13 11:58:46;;;;;;;8.00;4.10;;;;;;;28.50;40.37;100840.95;108103;1286;23405;-59
2023/10/13 12:06:46;;;;;;;7.20;3.60;;;;;;;29.16;39.25;100832.13;108144;1284;24382;-58
2023/10/13 12:11:45;;;;;;;8.10;3.10;;;;;;;29.40;39.04;100832.27;108128;1286;21998;-59
2023/10/13 12:14:19;;;;;;;13.20;3.70;;;;;;;29.59;39.01;100826.41;108202;1287;21992;-59
2023/10/13 12:16:51;;;;;;;10.70;4.10;;;;;;;29.84;38.96;100824.23;108125;1283;21997;-68
2023/10/13 12:19:23;;;;;;;11.10;4.00;;;;;;;30.12;38.61;100822.14;108084;1281;21996;-59
2023/10/13 12:21:55;;;;;;;7.80;3.40;;;;;;;30.33;38.66;100824.00;108113;1281;21993;-68
2023/10/13 12:27:18;;;;;;;6.60;3.10;;;;;;;30.77;38.34;100822.08;108061;1281;21994;-59
2023/10/13 12:29:48;;;;;;;8.20;3.50;;;;;;;30.83;37.82;100818.44;108249;1277;21998;-69
2023/10/13 12:32:14;;;;;;;13.50;4.10;;;;;;;30.81;37.44;100821.33;108170;1286;22031;-58
2023/10/13 12:54:14;;;;;;;13.00;4.20;;;;;;;30.34;37.45;100816.46;108119;1287;21996;-59
2023/10/13 12:56:43;;;;;;;9.80;3.70;;;;;;;30.19;36.97;100814.91;108078;1275;22001;-59
2023/10/13 12:59:13;;;;;;;10.30;4.20;;;;;;;29.98;37.13;100816.55;108246;1286;22036;-58
2023/10/13 13:01:42;;;;;;;14.40;4.00;;;;;;;29.82;37.31;100817.90;108049;1286;22049;-58
2023/10/13 13:04:20;;;;;;;14.60;4.00;;;;;;;29.70;37.39;100820.73;109710;1277;22024;-68
2023/10/13 13:06:53;;;;;;;16.00;4.10;;;;;;;29.60;37.28;100823.80;108106;1286;21992;-59
2023/10/13 13:09:25;;;;;;;13.00;4.30;;;;;;;29.56;37.47;100818.91;108107;1287;22001;-67
2023/10/13 13:11:57;;;;;;;9.40;3.90;;;;;;;29.60;37.84;100813.09;108191;1287;22005;-58
2023/10/13 13:14:30;;;;;;;20.90;4.90;;;;;;;29.77;37.88;100813.83;108094;1287;23088;-58
2023/10/13 13:17:05;;;;;;;11.50;4.10;;;;;;;29.87;37.29;100814.55;108128;1287;21999;-67
2023/10/13 13:19:40;;;;;;;13.60;4.30;;;;;;;29.91;36.88;100820.52;108212;1286;21999;-58
2023/10/13 13:22:13;;;;;;;10.20;3.70;;;;;;;30.00;37.12;100816.89;108057;1283;22007;-66
2023/10/13 13:24:47;;;;;;;11.70;3.70;;;;;;;30.07;36.99;100817.02;108101;1279;21990;-59
2023/10/13 13:27:14;;;;;;;11.80;4.40;;;;;;;30.04;36.23;100819.30;108083;1287;22001;-67
2023/10/13 13:29:41;;;;;;;10.80;3.90;;;;;;;29.93;36.69;100816.06;108140;1273;21993;-67
2023/10/13 13:32:17;;;;;;;11.90;3.70;;;;;;;29.82;36.52;100819.47;108177;1286;22000;-66
2023/10/13 13:34:44;;;;;;;11.70;3.10;;;;;;;29.70;36.41;100821.45;108126;1287;21992;-58
2023/10/13 13:37:12;;;;;;;6.80;2.70;;;;;;;29.55;36.55;100825.23;108059;1281;22000;-58
2023/10/13 13:39:44;;;;;;;6.90;2.90;;;;;;;29.43;36.67;100829.23;108635;1281;22006;-67
2023/10/13 13:42:10;;;;;;;6.70;2.60;;;;;;;29.29;36.61;100826.91;108155;1284;21995;-58
2023/10/13 13:44:38;;;;;;;17.50;3.40;;;;;;;29.15;36.43;100824.84;108103;1287;21998;-67
2023/10/13 13:47:11;;;;;;;7.90;3.00;;;;;;;28.99;36.67;100828.84;108098;1282;21994;-58
2023/10/13 13:49:40;;;;;;;9.10;2.80;;;;;;;28.87;36.64;100830.18;108219;1286;21993;-58
2023/10/13 13:52:07;;;;;;;13.40;3.10;;;;;;;28.78;36.81;100832.91;108096;1286;22000;-67
2023/10/13 13:54:33;;;;;;;10.50;2.60;;;;;;;28.72;36.94;100833.02;108161;1287;21994;-58
2023/10/13 13:56:58;;;;;;;9.80;2.70;;;;;;;28.66;37.09;100834.09;108119;1281;21997;-67
2023/10/13 13:59:24;;;;;;;9.20;3.00;;;;;;;28.57;37.10;100833.68;108165;1287;22088;-66
2023/10/13 14:01:52;;;;;;;13.30;3.40;;;;;;;28.46;37.12;100836.97;108118;1282;22027;-68
2023/10/13 14:04:18;;;;;;;12.60;2.80;;;;;;;28.35;37.22;100838.90;108120;1286;22002;-58
2023/10/13 14:06:44;;;;;;;7.10;2.70;;;;;;;28.25;37.28;100839.35;108236;1286;22000;-63
2023/10/13 14:09:32;;;;;;;8.40;3.20;;;;;;;28.15;37.41;100843.31;108252;1287;21986;-58
2023/10/13 14:14:57;;;;;;;10.50;3.10;;;;;;;27.91;37.47;100848.77;108150;1283;22013;-67
2023/10/13 14:17:29;;;;;;;12.10;3.30;;;;;;;27.79;37.51;100847.94;108126;1276;22005;-58
2023/10/13 14:19:56;;;;;;;8.50;3.20;;;;;;;27.66;37.57;100850.00;108153;1283;21995;-58
2023/10/13 14:22:24;;;;;;;4.70;2.30;;;;;;;27.54;37.59;100854.70;108140;1280;22031;-66
2023/10/13 14:24:57;;;;;;;11.70;3.30;;;;;;;27.39;37.72;100858.67;108145;1286;22070;-58
2023/10/13 14:27:23;;;;;;;11.10;2.70;;;;;;;27.23;37.98;100860.58;108082;1286;21993;-66
2023/10/13 14:29:52;;;;;;;7.50;2.80;;;;;;;27.11;38.03;100862.04;108101;1286;21995;-67
2023/10/13 14:32:19;;;;;;;12.10;2.70;;;;;;;26.99;38.09;100862.73;108143;1286;22102;-58
2023/10/13 14:34:48;;;;;;;8.10;2.40;;;;;;;26.88;38.10;100867.68;108140;1286;21995;-58
2023/10/13 14:37:14;;;;;;;7.30;3.20;;;;;;;26.78;38.18;100871.64;108152;1287;21996;-58
2023/10/13 14:39:40;;;;;;;8.30;2.50;;;;;;;26.69;38.31;100870.29;108123;1286;21993;-66
2023/10/13 14:42:06;;;;;;;7.30;2.00;;;;;;;26.59;38.34;100872.45;108161;1284;21986;-58
2023/10/13 14:44:33;;;;;;;14.00;2.70;;;;;;;26.49;38.53;100875.50;108082;1283;21998;-65
2023/10/13 14:46:58;;;;;;;12.70;2.50;;;;;;;26.39;38.59;100876.22;108090;1279;21997;-58
2023/10/13 14:49:24;;;;;;;12.60;2.40;;;;;;;26.30;38.85;100879.02;108936;1287;21951;-67
2023/10/13 14:51:49;;;;;;;12.70;2.90;;;;;;;26.23;38.82;100884.18;108285;1276;23072;-58
2023/10/13 14:54:15;;;;;;;5.80;1.90;;;;;;;26.15;38.89;100885.08;108095;1283;22012;-58
2023/10/13 14:56:42;;;;;;;5.90;2.20;;;;;;;26.07;38.88;100884.38;108115;1286;22053;-67
2023/10/13 14:59:16;;;;;;;5.60;2.20;;;;;;;25.97;39.01;100889.90;108101;1279;21994;-65
2023/10/13 15:01:42;;;;;;;6.10;2.00;;;;;;;25.85;39.14;100894.45;108091;1286;22012;-58
2023/10/13 15:04:08;;;;;;;12.10;2.20;;;;;;;25.75;39.16;100899.33;108107;1284;22000;-59
2023/10/13 15:06:34;;;;;;;4.90;2.20;;;;;;;25.63;39.25;100897.76;108138;1276;21998;-58
2023/10/13 15:09:00;;;;;;;13.00;2.10;;;;;;;25.53;39.32;100901.11;108111;1286;21999;-58